createdAt,value
2022-11-12T00:07:02.353Z,12
2022-11-12T00:17:04.094Z,12
2022-11-12T00:27:05.785Z,11
2022-11-12T00:37:07.388Z,15
2022-11-12T00:47:08.905Z,16
2022-11-12T00:57:10.268Z,14
2022-11-12T01:07:11.901Z,14
2022-11-12T01:17:13.042Z,14
2022-11-12T01:27:14.357Z,15
2022-11-12T01:37:15.499Z,22
2022-11-12T01:47:16.627Z,14
2022-11-12T01:57:17.726Z,11
2022-11-12T02:07:18.938Z,11
2022-11-12T02:17:20.120Z,13
2022-11-12T02:27:21.571Z,11
2022-11-12T02:37:22.856Z,16
2022-11-12T02:47:23.966Z,15
2022-11-12T02:57:25.092Z,14
2022-11-12T03:07:26.261Z,18
2022-11-12T03:17:27.437Z,18
2022-11-12T03:27:28.629Z,13
2022-11-12T03:37:29.913Z,17
2022-11-12T03:47:31.259Z,18
2022-11-12T03:57:32.409Z,17
2022-11-12T04:07:33.527Z,16
2022-11-12T04:17:34.639Z,24
2022-11-12T04:27:35.793Z,24
2022-11-12T04:37:36.912Z,22
2022-11-12T04:47:38.024Z,21
2022-11-12T04:57:39.183Z,22
2022-11-12T05:07:40.571Z,26
2022-11-12T05:17:41.712Z,26
2022-11-12T05:27:42.873Z,28
2022-11-12T05:37:44.048Z,30
2022-11-12T05:47:45.179Z,33
2022-11-12T05:57:46.348Z,27
2022-11-12T06:07:47.543Z,29
2022-11-12T06:17:48.670Z,29
2022-11-12T06:27:49.796Z,28
2022-11-12T06:37:51.120Z,35
2022-11-12T06:47:52.226Z,30
2022-11-12T06:57:53.362Z,37
2022-11-12T07:07:54.492Z,31
2022-11-12T07:17:55.623Z,31
2022-11-12T07:27:56.761Z,26
2022-11-12T07:37:59.682Z,29
2022-11-12T07:48:01.227Z,23
2022-11-12T07:58:02.900Z,28
2022-11-12T08:08:04.720Z,30
2022-11-12T08:18:06.529Z,26
2022-11-12T08:28:08.218Z,27
2022-11-12T08:38:09.624Z,24
2022-11-12T08:48:11.262Z,25
2022-11-12T08:58:12.475Z,28
2022-11-12T09:08:13.700Z,28
2022-11-12T09:18:14.850Z,0
2022-11-12T09:28:15.988Z,32
2022-11-12T09:38:17.106Z,34
2022-11-12T09:48:18.212Z,39
2022-11-12T09:58:19.354Z,34
2022-11-12T10:08:20.708Z,42
2022-11-12T10:18:21.821Z,47
2022-11-12T10:28:23.066Z,44
2022-11-12T10:38:24.640Z,32
2022-11-12T10:48:27.431Z,32
2022-11-12T10:58:29.161Z,26
2022-11-12T11:08:35.753Z,23
2022-11-12T11:18:37.473Z,30
2022-11-12T11:28:38.605Z,30
2022-11-12T11:38:39.740Z,30
2022-11-12T11:48:41.135Z,34
2022-11-12T11:58:42.298Z,29
2022-11-12T12:08:43.414Z,37
2022-11-12T12:18:44.550Z,33
2022-11-12T12:28:45.695Z,40
2022-11-12T12:38:46.818Z,45
2022-11-12T12:48:47.959Z,40
2022-11-12T12:58:49.131Z,42
2022-11-12T13:08:50.347Z,42
2022-11-12T13:18:51.557Z,48
2022-11-12T13:28:52.685Z,45
2022-11-12T13:38:58.778Z,45
2022-11-12T13:49:01.534Z,48
2022-11-12T13:59:03.365Z,42
2022-11-12T14:09:05.050Z,46
2022-11-12T14:19:06.778Z,39
2022-11-12T14:29:08.471Z,40
2022-11-12T14:39:09.869Z,41
2022-11-12T14:49:11.362Z,48
2022-11-12T14:59:12.610Z,48
2022-11-12T15:09:13.747Z,47
2022-11-12T15:19:14.868Z,37
2022-11-12T15:29:15.996Z,60
2022-11-12T15:39:17.128Z,58
2022-11-12T15:49:18.247Z,57
2022-11-12T15:59:19.400Z,59
2022-11-12T16:09:20.743Z,50
2022-11-12T16:19:21.861Z,42
2022-11-12T16:29:22.983Z,48
2022-11-12T16:39:24.115Z,48
2022-11-12T16:49:25.258Z,47
2022-11-12T16:59:26.372Z,54
2022-11-12T17:09:27.519Z,47
2022-11-12T17:19:28.645Z,34
2022-11-12T17:29:29.966Z,38
2022-11-12T17:39:31.494Z,45
2022-11-12T17:49:32.824Z,47
2022-11-12T17:59:34.219Z,44
2022-11-12T18:09:35.379Z,42
2022-11-12T18:19:36.450Z,25
2022-11-12T18:29:37.599Z,35
2022-11-12T18:39:38.701Z,42
2022-11-12T18:49:39.802Z,37
2022-11-12T18:59:41.339Z,72
2022-11-12T19:09:42.515Z,52
2022-11-12T19:19:43.658Z,76
2022-11-12T19:29:44.860Z,62
2022-11-12T19:39:46.195Z,46
2022-11-12T19:49:47.395Z,98
2022-11-12T19:59:48.648Z,74
2022-11-12T20:09:49.793Z,57
2022-11-12T20:19:51.172Z,52
2022-11-12T20:29:52.321Z,45
2022-11-12T20:39:53.459Z,61
2022-11-12T20:49:54.611Z,51
2022-11-12T20:59:55.736Z,56
2022-11-12T21:09:56.969Z,56
2022-11-12T21:19:58.111Z,56
2022-11-12T21:29:59.281Z,56
2022-11-12T21:40:00.593Z,58
2022-11-12T21:50:01.813Z,52
2022-11-12T22:00:34.561Z,53
2022-11-12T22:10:41.569Z,49
2022-11-12T22:20:42.813Z,50
2022-11-12T22:30:43.960Z,46
2022-11-12T22:40:45.090Z,47
2022-11-12T22:50:46.348Z,49
2022-11-12T23:00:47.611Z,45
2022-11-12T23:10:48.741Z,41
2022-11-12T23:20:49.897Z,48
2022-11-12T23:30:51.243Z,51
2022-11-12T23:40:52.396Z,50
2022-11-12T23:50:53.722Z,53
